Meteo Giornale » Osservazioni meteo Croazia » Osijek

ore: 17:30 - Osservazioni Meteo Osijek
Lat. 45° 28' N Lon. 18° 49' E Alt. 89 metri s.l.m.

molto_nuvoloso Europe/Zagreb

3 °C

Molto Nuvoloso

Temp. 24 Ore

3 °C

17 °C

Nord/NOvest

27.8 Km/h

Dew point 2 °C

Umidità 93 %

Visibilità  10 Km

Il sole sorge alle ore 06:26

Il sole tramonta alle ore 17:28

Data e Ora Cielo e Fenomeni T °C DP °C Um. % Pres. hPa Vis. km Vento km/h
Oggi h: 17:30 molto_nuvoloso Molto Nuvoloso 3 2 93 1001 10 N/NO 27.8
Oggi h: 17:00 coperto Coperto 4 2 86 1000 10 N/NO 27.8
Oggi h: 16:30 coperto_pioggia Pioggia Debole 4 2 86 1001 8 N/NO 29.6
Oggi h: 16:00 nuvoloso_piovaschi Rovescio di Pioggia 4 2 86 994 2 N 38.8
Oggi h: 15:30 coperto Coperto 6 4 86 998 10 N/NO 42.6
Oggi h: 15:00 molto_nuvoloso Molto Nuvoloso 7 5 87 998 10 N/NO 35.2
Oggi h: 14:30 molto_nuvoloso Molto Nuvoloso 8 6 87 996 10 N/NO 33.3
Oggi h: 14:00 coperto_pioggia Pioggia Debole 8 6 87 996 10 N 35.2
Oggi h: 13:30 coperto_pioggia Pioggia Debole 8 6 87 997 10 N/NO 33.3
Oggi h: 13:00 molto_nuvoloso Molto Nuvoloso 9 6 81 996 10 N 27.8
Oggi h: 12:30 molto_nuvoloso Molto Nuvoloso 10 5 71 997 10 N/NO 37
Oggi h: 12:00 nuvoloso Nuvoloso 15 6 54 996 10 NO 18.5
Oggi h: 11:30 nuvoloso Nuvoloso 16 5 47 996 10 O/NO 20.3
Oggi h: 11:00 poco_nuvoloso Poco Nuvoloso 17 4 41 997 10 O/SO 29.6
Oggi h: 10:30 sereno Sereno 16 5 47 997 10 O/SO 31.5
Oggi h: 09:30 sereno Sereno 13 6 62 997 10 SO 13
Oggi h: 09:00 poco_nuvoloso Poco Nuvoloso 9 5 75 997 10 SO 7.4
Oggi h: 08:30 nuvoloso Nuvoloso 7 4 81 998 10 S 9.3
Oggi h: 08:00 nuvoloso Nuvoloso 7 3 75 998 10 S/SO 9.3
Oggi h: 07:30 sereno Sereno 6 3 81 998 10 S 13
Oggi h: 07:00 sereno Sereno 6 3 81 998 10 S 14.8
Oggi h: 06:00 sereno Sereno 5 2 80 998 10 S/SE 14.8
Oggi h: 05:00 sereno Sereno 5 2 80 999 10 S/SE 9.3
Oggi h: 04:30 sereno Sereno 6 2 75 999 10 S 9.3
Oggi h: 04:00 sereno Sereno 6 2 75 1000 10 S/SE 11.1
Oggi h: 03:30 sereno Sereno 6 2 75 1000 10 S 11.1
Oggi h: 03:00 sereno Sereno 6 2 75 1000 10 S 14.8
Oggi h: 02:30 sereno Sereno 7 3 75 1001 10 S 18.5
Oggi h: 02:00 sereno Sereno 7 3 75 1001 10 S 16.7
Oggi h: 01:30 sereno Sereno 8 3 70 1002 10 S 24
Oggi h: 01:00 sereno Sereno 9 3 66 1002 10 S 22.2
Oggi h: 00:30 sereno Sereno 8 3 70 1002 10 S 16.7
Oggi h: 00:00 sereno Sereno 9 3 66 1003 10 S/SO 18.5
Ieri h: 23:30 sereno Sereno 9 3 66 1003 10 S 14.8
Ieri h: 23:00 sereno Sereno 10 3 61 1004 10 S/SO 16.7
Ieri h: 22:30 sereno Sereno 9 3 66 1004 10 S/SO 14.8
Ieri h: 22:00 sereno Sereno 8 3 70 1005 10 S/SO 14.8
Ieri h: 21:30 sereno Sereno 9 3 66 1005 10 O/SO 11.1
Ieri h: 21:00 sereno Sereno 8 3 70 1005 10 O 9.3
Ieri h: 20:30 sereno Sereno 7 2 70 1005 10 NO 7.4
Ieri h: 20:00 sereno Sereno 8 2 65 1005 10 S/SO 11.1
Ieri h: 19:30 sereno Sereno 8 2 65 1005 10 SO 13
Ieri h: 19:00 sereno Sereno 9 3 66 1005 10 S 14.8
Ieri h: 18:30 sereno Sereno 9 3 66 1005 10 S 11.1
Ieri h: 18:00 sereno Sereno 10 4 66 1005 10 S 16.7